createdAt,value
2023-01-06T00:02:30.630Z,98017.31
2023-01-06T00:04:59.705Z,98012.69
2023-01-06T00:07:31.859Z,98013.16
2023-01-06T00:10:02.838Z,98011.75
2023-01-06T00:12:33.302Z,98016.94
2023-01-06T00:15:02.035Z,98013.19
2023-01-06T00:17:30.747Z,98006.63
2023-01-06T00:19:59.451Z,98012.19
2023-01-06T00:22:28.231Z,98004.63
2023-01-06T00:24:57.204Z,98003.56
2023-01-06T00:27:25.879Z,98001.16
2023-01-06T00:29:56.582Z,98004.09
2023-01-06T00:32:26.145Z,98004.91
2023-01-06T00:34:55.097Z,97993.63
2023-01-06T00:37:23.780Z,97999.44
2023-01-06T00:39:52.471Z,97995.75
2023-01-06T00:42:25.065Z,98005.28
2023-01-06T00:44:54.305Z,97996.59
2023-01-06T00:47:25.273Z,97986.91
2023-01-06T00:49:53.955Z,97987.78
2023-01-06T00:52:22.699Z,97984.16
2023-01-06T00:54:51.417Z,97982.41
2023-01-06T00:57:20.110Z,97978.63
2023-01-06T00:59:49.488Z,97986.69
2023-01-06T01:02:19.866Z,97973.19
2023-01-06T01:04:50.309Z,97974.03
2023-01-06T01:07:19.049Z,97972.31
2023-01-06T01:09:48.070Z,97973.50
2023-01-06T01:12:17.206Z,97969.09
2023-01-06T01:14:48.345Z,97971.44
2023-01-06T01:17:25.110Z,97973.88
2023-01-06T01:19:56.409Z,97970.06
2023-01-06T01:22:25.932Z,97970.19
2023-01-06T01:24:56.821Z,97974.34
2023-01-06T01:27:25.524Z,97971.34
2023-01-06T01:29:56.513Z,97973.88
2023-01-06T01:32:25.478Z,97973.88
2023-01-06T01:34:56.580Z,97963.66
2023-01-06T01:37:25.573Z,97966.09
2023-01-06T01:39:54.945Z,97980.56
2023-01-06T01:42:24.213Z,97983.72
2023-01-06T01:44:56.123Z,97971.94
2023-01-06T01:47:29.261Z,97978.53
2023-01-06T01:50:01.841Z,97973.03
2023-01-06T01:52:31.029Z,97979.00
2023-01-06T01:54:59.709Z,97986.19
2023-01-06T01:57:31.761Z,97974.13
2023-01-06T02:00:01.596Z,97978.84
2023-01-06T02:02:32.005Z,97971.44
2023-01-06T02:05:02.372Z,97972.16
2023-01-06T02:07:31.329Z,97963.00
2023-01-06T02:10:04.729Z,97972.88
2023-01-06T02:12:33.439Z,97963.88
2023-01-06T02:15:02.130Z,97972.53
2023-01-06T02:17:43.788Z,97967.41
2023-01-06T02:20:24.593Z,97959.50
2023-01-06T02:23:10.115Z,97957.19
2023-01-06T02:25:58.094Z,97948.69
2023-01-06T02:28:40.608Z,97948.06
2023-01-06T02:31:32.713Z,97942.84
2023-01-06T02:34:04.469Z,97937.53
2023-01-06T02:36:36.589Z,97937.25
2023-01-06T02:39:14.497Z,97925.41
2023-01-06T02:41:44.591Z,97922.41
2023-01-06T02:44:19.347Z,97915.72
2023-01-06T02:47:00.921Z,97914.81
2023-01-06T02:49:31.870Z,97905.72
2023-01-06T02:52:02.149Z,97911.28
2023-01-06T02:54:34.950Z,97909.09
2023-01-06T02:57:09.328Z,97913.88
2023-01-06T02:59:39.717Z,97905.34
2023-01-06T03:02:10.918Z,97897.16
2023-01-06T03:04:42.819Z,97901.56
2023-01-06T03:07:11.957Z,97907.28
2023-01-06T03:09:41.097Z,97902.63
2023-01-06T03:12:12.526Z,97897.91
2023-01-06T03:14:42.022Z,97886.34
2023-01-06T03:17:12.107Z,97882.84
2023-01-06T03:19:41.033Z,97877.38
2023-01-06T03:22:09.878Z,97881.50
2023-01-06T03:24:38.805Z,97879.31
2023-01-06T03:27:10.465Z,97878.81
2023-01-06T03:29:39.483Z,97867.88
2023-01-06T03:32:13.746Z,97861.09
2023-01-06T03:34:49.462Z,97849.16
2023-01-06T03:37:23.493Z,97843.53
2023-01-06T03:39:57.073Z,97842.09
2023-01-06T03:42:43.241Z,97844.13
2023-01-06T03:45:20.700Z,97856.69
2023-01-06T03:47:53.810Z,97838.72
2023-01-06T03:50:24.820Z,97838.94
2023-01-06T03:52:57.357Z,97833.09
2023-01-06T03:55:26.711Z,97840.38
2023-01-06T03:57:57.208Z,97829.44
2023-01-06T04:00:27.884Z,97830.94
2023-01-06T04:02:57.916Z,97830.19
2023-01-06T04:05:26.867Z,97828.94
2023-01-06T04:07:55.781Z,97840.00
2023-01-06T04:10:24.614Z,97839.41
2023-01-06T04:12:52.516Z,97831.66
2023-01-06T04:15:21.925Z,97815.69
2023-01-06T04:17:50.727Z,97816.53
2023-01-06T04:20:23.801Z,97813.22
2023-01-06T04:22:55.716Z,97820.53
2023-01-06T04:25:24.702Z,97827.44
2023-01-06T04:27:53.501Z,97822.16
2023-01-06T04:30:22.233Z,97810.84
2023-01-06T04:32:52.351Z,97814.88
2023-01-06T04:35:22.421Z,97800.88
2023-01-06T04:37:54.071Z,97806.69
2023-01-06T04:40:22.757Z,97793.94
2023-01-06T04:43:05.384Z,97795.53
2023-01-06T04:45:34.488Z,97789.31
2023-01-06T04:48:04.553Z,97784.22
2023-01-06T04:50:35.914Z,97788.34
2023-01-06T04:53:04.697Z,97775.81
2023-01-06T04:55:33.406Z,97774.28
2023-01-06T04:58:03.182Z,97778.88
2023-01-06T05:00:31.902Z,97767.19
2023-01-06T05:03:01.693Z,97773.53
2023-01-06T05:05:30.346Z,97767.56
2023-01-06T05:08:01.490Z,97757.81
2023-01-06T05:10:30.122Z,97754.44
2023-01-06T05:12:59.295Z,97739.94
2023-01-06T05:15:27.993Z,97746.03
2023-01-06T05:17:56.685Z,97752.84
2023-01-06T05:20:25.468Z,97752.88
2023-01-06T05:22:54.113Z,97738.63
2023-01-06T05:25:24.144Z,97735.25
2023-01-06T05:27:52.870Z,97736.69
2023-01-06T05:30:21.655Z,97735.47
2023-01-06T05:32:50.369Z,97733.19
2023-01-06T05:35:20.877Z,97727.31
2023-01-06T05:37:49.550Z,97724.53
2023-01-06T05:40:18.305Z,97733.66
2023-01-06T05:42:48.655Z,97725.31
2023-01-06T05:45:21.694Z,97722.72
2023-01-06T05:47:50.381Z,97728.28
2023-01-06T05:50:19.215Z,97730.72
2023-01-06T05:52:48.943Z,97720.66
2023-01-06T05:55:18.896Z,97722.09
2023-01-06T05:57:48.945Z,97727.56
2023-01-06T06:00:17.983Z,97733.03
2023-01-06T06:02:47.239Z,97744.81
2023-01-06T06:05:16.168Z,97735.97
2023-01-06T06:07:45.064Z,97741.22
2023-01-06T06:10:14.087Z,97735.84
2023-01-06T06:12:42.786Z,97739.00
2023-01-06T06:15:14.592Z,97743.47
2023-01-06T06:17:43.627Z,97734.91
2023-01-06T06:20:12.439Z,97732.78
2023-01-06T06:22:41.119Z,97726.72
2023-01-06T06:25:10.363Z,97728.06
2023-01-06T06:27:40.100Z,97730.50
2023-01-06T06:30:10.313Z,97724.31
2023-01-06T06:32:40.460Z,97719.19
2023-01-06T06:35:09.805Z,97734.63
2023-01-06T06:37:38.537Z,97738.72
2023-01-06T06:40:10.294Z,97736.44
2023-01-06T06:42:41.237Z,97736.56
2023-01-06T06:45:12.854Z,97734.59
2023-01-06T06:47:43.228Z,97730.75
2023-01-06T06:50:12.694Z,97730.25
2023-01-06T06:52:41.785Z,97724.19
2023-01-06T06:55:11.123Z,97729.66
2023-01-06T06:57:44.655Z,97733.78
2023-01-06T07:00:14.081Z,97735.72
2023-01-06T07:02:44.798Z,97732.22
2023-01-06T07:05:14.498Z,97733.91
2023-01-06T07:07:43.295Z,97734.75
2023-01-06T07:10:14.429Z,97736.09
2023-01-06T07:12:43.155Z,97721.03
2023-01-06T07:15:12.340Z,97718.94
2023-01-06T07:17:43.105Z,97721.75
2023-01-06T07:20:13.459Z,97730.25
2023-01-06T07:22:44.186Z,97721.63
2023-01-06T07:25:12.865Z,97704.25
2023-01-06T07:27:43.491Z,97704.97
2023-01-06T07:30:12.874Z,97718.94
2023-01-06T07:32:41.666Z,97717.16
2023-01-06T07:35:11.058Z,97718.47
2023-01-06T07:37:41.328Z,97706.81
2023-01-06T07:40:10.739Z,97700.25
2023-01-06T07:42:39.446Z,97713.50
2023-01-06T07:45:09.086Z,97712.25
2023-01-06T07:47:39.163Z,97717.34
2023-01-06T07:50:08.396Z,97721.03
2023-01-06T07:52:37.066Z,97734.97
2023-01-06T07:55:08.021Z,97727.00
2023-01-06T07:57:37.741Z,97730.25
2023-01-06T08:00:07.053Z,97725.13
2023-01-06T08:02:36.139Z,97732.34
2023-01-06T08:05:05.160Z,97734.63
2023-01-06T08:07:33.979Z,97734.03
2023-01-06T08:10:02.654Z,97728.22
2023-01-06T08:12:32.769Z,97743.03
2023-01-06T08:15:01.460Z,97735.28
2023-01-06T08:17:30.969Z,97733.03
2023-01-06T08:19:59.973Z,97737.91
2023-01-06T08:22:30.691Z,97733.31
2023-01-06T08:24:59.621Z,97743.66
2023-01-06T08:27:29.012Z,97740.34
2023-01-06T08:29:59.032Z,97725.56
2023-01-06T08:32:27.703Z,97734.78
2023-01-06T08:34:56.369Z,97736.25
2023-01-06T08:37:25.048Z,97739.50
2023-01-06T08:39:54.125Z,97744.25
2023-01-06T08:42:22.853Z,97740.09
2023-01-06T08:44:51.573Z,97748.97
2023-01-06T08:47:21.616Z,97749.44
2023-01-06T08:49:50.315Z,97761.38
2023-01-06T08:52:19.040Z,97761.06
2023-01-06T08:54:47.770Z,97769.84
2023-01-06T08:57:17.364Z,97773.13
2023-01-06T08:59:46.082Z,97783.31
2023-01-06T09:02:32.040Z,97784.63
2023-01-06T09:05:06.449Z,97780.53
2023-01-06T09:07:36.255Z,97793.03
2023-01-06T09:10:05.324Z,97803.50
2023-01-06T09:12:34.352Z,97793.78
2023-01-06T09:15:04.065Z,97807.63
2023-01-06T09:17:32.894Z,97808.09
2023-01-06T09:20:01.770Z,97804.25
2023-01-06T09:22:32.403Z,97799.97
2023-01-06T09:25:03.268Z,97806.00
2023-01-06T09:27:32.290Z,97806.06
2023-01-06T09:30:01.541Z,97811.63
2023-01-06T09:32:30.552Z,97820.13
2023-01-06T09:35:00.045Z,97825.72
2023-01-06T09:37:39.695Z,97830.97
2023-01-06T09:40:13.309Z,97828.56
2023-01-06T09:42:49.598Z,97823.66
2023-01-06T09:45:22.452Z,97826.34
2023-01-06T09:47:56.051Z,97837.78
2023-01-06T09:50:33.714Z,97847.16
2023-01-06T09:53:05.013Z,97848.13
2023-01-06T09:55:43.476Z,97854.56
2023-01-06T09:58:15.713Z,97858.94
2023-01-06T10:00:45.520Z,97858.06
2023-01-06T10:03:15.710Z,97860.38
2023-01-06T10:05:50.531Z,97861.50
2023-01-06T10:08:23.900Z,97866.16
2023-01-06T10:10:58.242Z,97860.75
2023-01-06T10:13:34.892Z,97867.25
2023-01-06T10:16:07.060Z,97866.28
2023-01-06T10:18:41.050Z,97866.84
2023-01-06T10:21:14.783Z,97865.81
2023-01-06T10:26:41.033Z,97866.69
2023-01-06T10:29:14.416Z,97863.84
2023-01-06T10:31:43.828Z,97865.72
2023-01-06T10:34:19.305Z,97867.59
2023-01-06T10:36:49.873Z,97872.06
2023-01-06T10:39:20.130Z,97866.97
2023-01-06T10:41:56.973Z,97872.41
2023-01-06T10:44:25.655Z,97867.41
2023-01-06T10:46:54.772Z,97881.69
2023-01-06T10:49:24.148Z,97878.28
2023-01-06T10:51:54.420Z,97882.28
2023-01-06T10:54:25.351Z,97876.94
2023-01-06T10:57:04.332Z,97883.63
2023-01-06T10:59:33.121Z,97882.06
2023-01-06T11:02:02.589Z,97893.13
2023-01-06T11:04:31.382Z,97884.59
2023-01-06T11:07:00.676Z,97881.97
2023-01-06T11:09:32.789Z,97865.75
2023-01-06T11:12:04.341Z,97874.91
2023-01-06T11:14:33.916Z,97865.16
2023-01-06T11:17:03.480Z,97866.50
2023-01-06T11:19:35.971Z,97865.66
2023-01-06T11:22:23.156Z,97862.34
2023-01-06T11:24:55.929Z,97869.63
2023-01-06T11:27:26.178Z,97863.22
2023-01-06T11:29:54.898Z,97866.97
2023-01-06T11:32:24.573Z,97882.56
2023-01-06T11:34:54.915Z,97876.69
2023-01-06T11:37:32.696Z,97877.19
2023-01-06T11:40:11.632Z,97871.13
2023-01-06T11:45:31.968Z,97873.81
2023-01-06T11:48:00.711Z,97874.53
2023-01-06T11:50:29.976Z,97886.81
2023-01-06T11:53:01.960Z,97878.06
2023-01-06T11:55:32.156Z,97878.44
2023-01-06T11:58:28.463Z,97879.34
2023-01-06T12:01:06.673Z,97878.00
2023-01-06T12:03:43.609Z,97876.78
2023-01-06T12:06:24.301Z,97873.50
2023-01-06T12:08:57.651Z,97879.31
2023-01-06T12:11:34.498Z,97867.53
2023-01-06T12:14:23.562Z,97866.16
2023-01-06T12:17:07.415Z,97866.78
2023-01-06T12:19:41.428Z,97869.06
2023-01-06T12:22:16.323Z,97863.59
2023-01-06T12:24:45.357Z,97855.66
2023-01-06T12:27:16.759Z,97852.25
2023-01-06T12:29:47.365Z,97857.00
2023-01-06T12:32:19.385Z,97838.00
2023-01-06T12:34:50.486Z,97833.81
2023-01-06T12:37:25.042Z,97834.69
2023-01-06T12:39:57.525Z,97821.81
2023-01-06T12:42:37.809Z,97829.31
2023-01-06T12:45:13.290Z,97818.88
2023-01-06T12:47:55.211Z,97823.41
2023-01-06T12:50:28.759Z,97826.84
2023-01-06T12:53:04.918Z,97823.91
2023-01-06T12:55:41.816Z,97822.84
2023-01-06T12:58:23.818Z,97829.28
2023-01-06T13:01:06.396Z,97819.31
2023-01-06T13:03:56.342Z,97824.56
2023-01-06T13:06:34.111Z,97823.72
2023-01-06T13:09:15.504Z,97830.72
2023-01-06T13:11:57.076Z,97834.88
2023-01-06T13:14:30.253Z,97829.50
2023-01-06T13:17:03.656Z,97824.28
2023-01-06T13:19:42.513Z,97821.88
2023-01-06T13:22:14.801Z,97821.16
2023-01-06T13:24:50.439Z,97830.28
2023-01-06T13:27:28.278Z,97838.56
2023-01-06T13:30:09.977Z,97831.88
2023-01-06T13:32:54.651Z,97842.97
2023-01-06T13:35:42.904Z,97840.97
2023-01-06T13:38:20.260Z,97833.69
2023-01-06T13:40:54.423Z,97839.66
2023-01-06T13:43:24.579Z,97831.00
2023-01-06T13:45:59.032Z,97834.44
2023-01-06T13:48:36.955Z,97833.81
2023-01-06T13:51:08.673Z,97831.34
2023-01-06T13:53:40.533Z,97840.63
2023-01-06T13:56:25.179Z,97843.81
2023-01-06T13:59:15.732Z,97834.03
2023-01-06T14:01:45.125Z,97839.66
2023-01-06T14:04:46.133Z,97840.97
2023-01-06T14:07:48.626Z,97844.03
2023-01-06T14:10:42.561Z,97850.75
2023-01-06T14:13:22.392Z,97862.66
2023-01-06T14:16:04.490Z,97850.63
2023-01-06T14:18:48.041Z,97856.81
2023-01-06T14:21:28.799Z,97856.06
2023-01-06T14:24:02.081Z,97846.22
2023-01-06T14:26:48.375Z,97864.84
2023-01-06T14:29:49.545Z,97856.69
2023-01-06T14:32:49.822Z,97855.00
2023-01-06T14:35:20.622Z,97863.38
2023-01-06T14:38:02.003Z,97852.53
2023-01-06T14:40:43.773Z,97860.22
2023-01-06T14:43:38.237Z,97855.09
2023-01-06T14:46:25.917Z,97850.50
2023-01-06T14:49:05.425Z,97865.22
2023-01-06T14:51:36.306Z,97857.91
2023-01-06T14:54:12.165Z,97855.84
2023-01-06T14:56:42.959Z,97864.00
2023-01-06T14:59:22.898Z,97861.19
2023-01-06T15:01:59.676Z,97868.13
2023-01-06T15:04:33.053Z,97870.56
2023-01-06T15:07:17.452Z,97876.28
2023-01-06T15:09:53.291Z,97875.56
2023-01-06T15:12:26.620Z,97878.47
2023-01-06T15:14:57.291Z,97874.22
2023-01-06T15:17:36.020Z,97870.50
2023-01-06T15:20:06.890Z,97878.13
2023-01-06T15:22:47.328Z,97881.09
2023-01-06T15:25:24.433Z,97878.97
2023-01-06T15:27:57.902Z,97883.22
2023-01-06T15:30:29.702Z,97877.75
2023-01-06T15:33:00.107Z,97874.09
2023-01-06T15:35:36.718Z,97873.25
2023-01-06T15:38:18.295Z,97876.50
2023-01-06T15:40:47.479Z,97878.53
2023-01-06T15:43:34.120Z,97881.84
2023-01-06T15:46:09.692Z,97879.69
2023-01-06T15:48:42.270Z,97883.41
2023-01-06T15:51:16.127Z,97884.97
2023-01-06T15:57:11.619Z,97880.13
2023-01-06T16:00:09.304Z,97880.63
2023-01-06T16:02:45.493Z,97886.56
2023-01-06T16:05:39.705Z,97888.06
2023-01-06T16:08:20.624Z,97895.56
2023-01-06T16:10:52.466Z,97886.56
2023-01-06T16:13:29.067Z,97895.84
2023-01-06T16:16:00.895Z,97897.16
2023-01-06T16:18:37.534Z,97896.69
2023-01-06T16:21:18.754Z,97888.41
2023-01-06T16:24:00.356Z,97898.38
2023-01-06T16:26:47.384Z,97905.72
2023-01-06T16:32:32.822Z,97892.28
2023-01-06T16:35:14.135Z,97894.47
2023-01-06T16:37:53.595Z,97899.81
2023-01-06T16:40:26.795Z,97896.91
2023-01-06T16:43:01.175Z,97895.22
2023-01-06T16:45:39.007Z,97890.72
2023-01-06T16:48:09.886Z,97893.03
2023-01-06T16:51:00.387Z,97888.50
2023-01-06T16:53:33.882Z,97894.78
2023-01-06T16:56:03.568Z,97902.41
2023-01-06T16:58:34.091Z,97900.22
2023-01-06T17:01:26.630Z,97919.31
2023-01-06T17:04:03.267Z,97913.31
2023-01-06T17:06:37.565Z,97911.63
2023-01-06T17:09:22.208Z,97925.19
2023-01-06T17:11:51.556Z,97918.19
2023-01-06T17:14:22.514Z,97925.06
2023-01-06T17:16:51.889Z,97926.28
2023-01-06T17:19:27.617Z,97922.84
2023-01-06T17:22:08.223Z,97925.63
2023-01-06T17:24:37.269Z,97927.75
2023-01-06T17:27:16.596Z,97929.69
2023-01-06T17:29:48.183Z,97919.00
2023-01-06T17:32:32.349Z,97921.44
2023-01-06T17:35:03.249Z,97933.47
2023-01-06T17:38:00.005Z,97930.47
2023-01-06T17:40:39.970Z,97927.03
2023-01-06T17:43:18.534Z,97928.00
2023-01-06T17:45:49.525Z,97927.28
2023-01-06T17:48:23.631Z,97928.63
2023-01-06T17:51:06.801Z,97925.69
2023-01-06T17:53:54.425Z,97929.72
2023-01-06T17:56:29.990Z,97926.44
2023-01-06T17:58:59.688Z,97926.69
2023-01-06T18:01:33.436Z,97922.88
2023-01-06T18:04:07.210Z,97919.00
2023-01-06T18:06:40.526Z,97919.38
2023-01-06T18:09:14.438Z,97923.03
2023-01-06T18:11:47.490Z,97919.63
2023-01-06T18:14:24.262Z,97925.22
2023-01-06T18:16:56.891Z,97921.78
2023-01-06T18:19:31.081Z,97922.75
2023-01-06T18:22:15.480Z,97912.81
2023-01-06T18:25:00.931Z,97913.78
2023-01-06T18:30:22.545Z,97914.00
2023-01-06T18:32:52.864Z,97920.84
2023-01-06T18:35:28.097Z,97919.88
2023-01-06T18:38:05.478Z,97914.25
2023-01-06T18:40:37.711Z,97913.28
2023-01-06T18:43:27.613Z,97910.34
2023-01-06T18:45:58.300Z,97903.69
2023-01-06T18:48:30.557Z,97906.22
2023-01-06T18:51:04.224Z,97904.50
2023-01-06T18:53:43.466Z,97906.09
2023-01-06T18:56:20.036Z,97905.50
2023-01-06T18:58:53.339Z,97906.84
2023-01-06T19:01:25.456Z,97914.13
2023-01-06T19:04:07.958Z,97910.38
2023-01-06T19:09:40.883Z,97910.97
2023-01-06T19:12:31.575Z,97913.63
2023-01-06T19:15:02.550Z,97915.22
2023-01-06T19:17:37.803Z,97913.53
2023-01-06T19:20:23.682Z,97909.38
2023-01-06T19:23:00.602Z,97908.06
2023-01-06T19:25:33.223Z,97905.38
2023-01-06T19:28:10.775Z,97907.56
2023-01-06T19:30:45.151Z,97907.56
2023-01-06T19:36:30.803Z,97907.13
2023-01-06T19:39:20.613Z,97895.44
2023-01-06T19:41:57.309Z,97901.28
2023-01-06T19:44:34.452Z,97896.66
2023-01-06T19:47:20.939Z,97890.69
2023-01-06T19:49:55.396Z,97897.50
2023-01-06T19:52:31.458Z,97892.03
2023-01-06T19:55:10.701Z,97891.31
2023-01-06T19:57:41.383Z,97881.81
2023-01-06T20:00:22.408Z,97891.78
2023-01-06T20:02:51.189Z,97895.56
2023-01-06T20:05:21.378Z,97898.13
2023-01-06T20:07:50.554Z,97889.84
2023-01-06T20:10:20.905Z,97896.53
2023-01-06T20:12:53.944Z,97894.72
2023-01-06T20:15:25.472Z,97900.91
2023-01-06T20:17:54.382Z,97886.41
2023-01-06T20:20:24.475Z,97885.88
2023-01-06T20:22:53.206Z,97895.44
2023-01-06T20:25:22.139Z,97895.16
2023-01-06T20:27:51.210Z,97889.25
2023-01-06T20:30:22.325Z,97885.50
2023-01-06T20:32:52.363Z,97884.69
2023-01-06T20:35:21.072Z,97894.06
2023-01-06T20:37:50.247Z,97889.59
2023-01-06T20:40:19.696Z,97888.97
2023-01-06T20:42:48.377Z,97896.69
2023-01-06T20:45:17.229Z,97894.16
2023-01-06T20:47:48.318Z,97898.28
2023-01-06T20:50:18.468Z,97895.88
2023-01-06T20:52:49.839Z,97904.41
2023-01-06T20:55:20.912Z,97895.38
2023-01-06T20:58:08.317Z,97901.44
2023-01-06T21:00:37.354Z,97892.56
2023-01-06T21:03:07.451Z,97906.69
2023-01-06T21:05:54.286Z,97897.81
2023-01-06T21:08:27.104Z,97907.28
2023-01-06T21:10:55.839Z,97904.50
2023-01-06T21:13:24.682Z,97902.41
2023-01-06T21:15:53.375Z,97908.75
2023-01-06T21:18:26.373Z,97906.78
2023-01-06T21:21:00.881Z,97905.06
2023-01-06T21:23:33.211Z,97902.56
2023-01-06T21:26:01.905Z,97900.50
2023-01-06T21:28:31.241Z,97902.88
2023-01-06T21:31:01.058Z,97905.47
2023-01-06T21:33:31.148Z,97906.03
2023-01-06T21:36:01.452Z,97907.97
2023-01-06T21:38:30.290Z,97900.97
2023-01-06T21:41:24.815Z,97906.09
2023-01-06T21:43:53.624Z,97905.47
2023-01-06T21:46:25.332Z,97913.38
2023-01-06T21:48:54.531Z,97905.56
2023-01-06T21:51:24.848Z,97907.13
2023-01-06T21:53:53.822Z,97913.94
2023-01-06T21:56:23.981Z,97905.47
2023-01-06T21:58:54.441Z,97907.91
2023-01-06T22:01:31.495Z,97909.72
2023-01-06T22:04:08.223Z,97908.06
2023-01-06T22:06:47.274Z,97909.78
2023-01-06T22:09:17.488Z,97909.66
2023-01-06T22:11:51.223Z,97916.09
2023-01-06T22:14:21.315Z,97916.19
2023-01-06T22:16:58.951Z,97915.44
2023-01-06T22:19:41.785Z,97906.19
2023-01-06T22:22:19.537Z,97914.59
2023-01-06T22:24:48.823Z,97920.19
2023-01-06T22:27:25.209Z,97913.19
2023-01-06T22:29:59.356Z,97908.75
2023-01-06T22:32:32.029Z,97922.88
2023-01-06T22:35:16.755Z,97920.34
2023-01-06T22:37:57.291Z,97912.03
2023-01-06T22:40:28.389Z,97906.31
2023-01-06T22:42:59.502Z,97903.78
2023-01-06T22:45:44.427Z,97913.41
2023-01-06T22:48:16.394Z,97906.69
2023-01-06T22:50:48.204Z,97916.03
2023-01-06T22:53:44.060Z,97910.69
2023-01-06T22:56:18.387Z,97911.38
2023-01-06T22:58:47.346Z,97911.91
2023-01-06T23:01:17.905Z,97912.47
2023-01-06T23:03:50.571Z,97908.66
2023-01-06T23:06:19.345Z,97906.09
2023-01-06T23:09:00.147Z,97897.59
2023-01-06T23:11:35.662Z,97905.59
2023-01-06T23:14:11.265Z,97907.06
2023-01-06T23:16:49.427Z,97914.13
2023-01-06T23:19:24.275Z,97902.66
2023-01-06T23:21:55.827Z,97899.72
2023-01-06T23:24:30.265Z,97901.06
2023-01-06T23:27:15.305Z,97904.38
2023-01-06T23:29:47.022Z,97906.34
2023-01-06T23:32:18.098Z,97895.03
2023-01-06T23:34:53.535Z,97895.38
2023-01-06T23:37:23.401Z,97889.41
2023-01-06T23:39:56.400Z,97894.66
2023-01-06T23:42:27.363Z,97888.38
2023-01-06T23:45:00.859Z,97890.53
2023-01-06T23:47:31.340Z,97880.16
2023-01-06T23:50:06.340Z,97882.94
2023-01-06T23:52:37.273Z,97878.81
2023-01-06T23:55:12.038Z,97889.66
2023-01-06T23:57:52.822Z,97881.00
